createdAt,value
2022-10-23T00:00:00.700Z,24.60
2022-10-23T00:02:57.458Z,15.80
2022-10-23T00:05:54.860Z,22.00
2022-10-23T00:08:51.772Z,20.40
2022-10-23T00:11:49.965Z,18.80
2022-10-23T00:14:46.811Z,14.00
2022-10-23T00:17:43.844Z,15.80
2022-10-23T00:20:40.490Z,24.40
2022-10-23T00:23:37.915Z,17.40
2022-10-23T00:26:34.716Z,17.80
2022-10-23T00:29:31.606Z,22.00
2022-10-23T00:32:29.151Z,18.60
2022-10-23T00:35:25.984Z,15.60
2022-10-23T00:38:22.701Z,17.80
2022-10-23T00:41:22.482Z,18.00
2022-10-23T00:44:22.192Z,21.00
2022-10-23T00:47:19.979Z,14.80
2022-10-23T00:50:17.198Z,15.60
2022-10-23T00:53:14.661Z,14.60
2022-10-23T00:56:12.148Z,18.20
2022-10-23T00:59:08.896Z,12.80
2022-10-23T01:02:05.770Z,16.40
2022-10-23T01:05:03.154Z,15.40
2022-10-23T01:08:02.926Z,17.00
2022-10-23T01:11:15.279Z,20.00
2022-10-23T01:14:16.089Z,10.80
2022-10-23T01:17:15.084Z,18.60
2022-10-23T01:20:38.335Z,14.60
2022-10-23T01:23:45.031Z,13.60
2022-10-23T01:26:59.753Z,18.20
2022-10-23T01:30:14.227Z,20.60
2022-10-23T01:33:17.537Z,17.80
2022-10-23T01:36:17.645Z,20.60
2022-10-23T01:39:36.128Z,16.40
2022-10-23T01:42:41.973Z,19.60
2022-10-23T01:45:41.734Z,18.80
2022-10-23T01:48:46.207Z,16.40
2022-10-23T01:51:45.965Z,19.20
2022-10-23T01:54:43.411Z,20.40
2022-10-23T01:57:40.805Z,18.00
2022-10-23T02:00:37.957Z,18.40
2022-10-23T02:03:35.398Z,12.60
2022-10-23T02:06:33.082Z,18.80
2022-10-23T02:09:30.047Z,16.80
2022-10-23T02:12:53.151Z,19.20
2022-10-23T02:15:52.383Z,21.40
2022-10-23T02:19:06.720Z,19.20
2022-10-23T02:22:17.071Z,19.00
2022-10-23T02:25:18.705Z,18.60
2022-10-23T02:28:19.924Z,15.40
2022-10-23T02:31:18.775Z,18.40
2022-10-23T02:34:15.487Z,20.00
2022-10-23T02:37:12.844Z,16.60
2022-10-23T02:40:10.327Z,23.60
2022-10-23T02:43:21.056Z,13.60
2022-10-23T02:46:23.190Z,15.60
2022-10-23T02:49:19.926Z,14.20
2022-10-23T02:52:24.019Z,17.20
2022-10-23T02:55:27.401Z,16.60
2022-10-23T02:58:43.417Z,16.00
2022-10-23T03:01:52.113Z,19.80
2022-10-23T03:04:48.813Z,16.40
2022-10-23T03:07:46.016Z,15.60
2022-10-23T03:10:43.305Z,19.40
2022-10-23T03:13:41.042Z,16.00
2022-10-23T03:16:38.001Z,15.40
2022-10-23T03:19:34.771Z,14.00
2022-10-23T03:22:34.440Z,14.00
2022-10-23T03:25:31.920Z,15.00
2022-10-23T03:28:29.890Z,12.80
2022-10-23T03:31:28.833Z,15.20
2022-10-23T03:34:28.704Z,15.20
2022-10-23T03:37:26.143Z,14.80
2022-10-23T03:40:23.114Z,13.20
2022-10-23T03:43:20.965Z,12.00
2022-10-23T03:46:17.923Z,17.00
2022-10-23T03:49:14.657Z,12.80
2022-10-23T03:52:14.187Z,13.80
2022-10-23T03:55:11.592Z,8.80
2022-10-23T03:58:08.988Z,14.00
2022-10-23T04:01:06.075Z,12.20
2022-10-23T04:04:02.903Z,14.80
2022-10-23T04:07:00.811Z,13.40
2022-10-23T04:09:58.728Z,12.20
2022-10-23T04:12:56.126Z,12.80
2022-10-23T04:15:53.613Z,8.40
2022-10-23T04:18:51.052Z,12.00
2022-10-23T04:21:47.861Z,11.00
2022-10-23T04:24:46.786Z,9.00
2022-10-23T04:27:48.278Z,12.40
2022-10-23T04:30:44.924Z,11.40
2022-10-23T04:33:43.023Z,13.00
2022-10-23T04:36:42.856Z,13.20
2022-10-23T04:39:40.731Z,10.00
2022-10-23T04:42:38.225Z,12.60
2022-10-23T04:45:35.066Z,13.60
2022-10-23T04:48:32.272Z,11.80
2022-10-23T04:51:48.858Z,8.80
2022-10-23T04:55:04.644Z,10.60
2022-10-23T04:58:22.634Z,10.20
2022-10-23T05:01:20.948Z,9.20
2022-10-23T05:04:19.386Z,9.40
2022-10-23T05:07:35.748Z,8.00
2022-10-23T05:10:52.887Z,7.60
2022-10-23T05:13:49.811Z,9.80
2022-10-23T05:16:50.153Z,11.80
2022-10-23T05:19:50.675Z,8.80
2022-10-23T05:22:48.982Z,9.00
2022-10-23T05:25:46.833Z,10.40
2022-10-23T05:28:47.309Z,8.20
2022-10-23T05:31:47.531Z,8.40
2022-10-23T05:34:45.083Z,10.60
2022-10-23T05:37:43.073Z,7.00
2022-10-23T05:40:53.424Z,10.20
2022-10-23T05:43:51.868Z,11.60
2022-10-23T05:47:07.617Z,11.00
2022-10-23T05:50:31.119Z,11.40
2022-10-23T05:53:47.061Z,8.00
2022-10-23T05:57:02.278Z,9.80
2022-10-23T06:00:12.834Z,7.80
2022-10-23T06:03:12.025Z,11.20
2022-10-23T06:06:13.140Z,12.60
2022-10-23T06:09:15.829Z,10.00
2022-10-23T06:12:13.144Z,11.80
2022-10-23T06:15:13.150Z,6.60
2022-10-23T06:18:34.044Z,10.80
2022-10-23T06:21:38.886Z,13.40
2022-10-23T06:24:36.102Z,14.60
2022-10-23T06:27:34.868Z,10.60
2022-10-23T06:30:34.333Z,10.80
2022-10-23T06:33:31.423Z,11.40
2022-10-23T06:36:28.257Z,13.80
2022-10-23T06:39:41.445Z,12.00
2022-10-23T06:43:05.299Z,13.80
2022-10-23T06:46:40.984Z,16.40
2022-10-23T06:49:56.469Z,13.00
2022-10-23T06:52:54.441Z,15.00
2022-10-23T06:55:55.344Z,14.20
2022-10-23T06:58:52.902Z,13.60
2022-10-23T07:01:50.589Z,11.80
2022-10-23T07:04:48.181Z,8.00
2022-10-23T07:07:49.149Z,15.00
2022-10-23T07:10:52.213Z,14.40
2022-10-23T07:13:50.215Z,11.20
2022-10-23T07:16:47.923Z,12.00
2022-10-23T07:19:46.941Z,11.60
2022-10-23T07:22:51.308Z,11.60
2022-10-23T07:25:54.905Z,15.80
2022-10-23T07:28:55.258Z,12.20
2022-10-23T07:31:53.913Z,15.40
2022-10-23T07:35:09.431Z,14.00
2022-10-23T07:38:09.307Z,9.40
2022-10-23T07:41:12.633Z,13.20
2022-10-23T07:44:10.084Z,14.20
2022-10-23T07:47:07.367Z,17.40
2022-10-23T07:50:04.626Z,13.00
2022-10-23T07:53:01.903Z,16.80
2022-10-23T07:56:22.540Z,18.00
2022-10-23T07:59:42.171Z,17.00
2022-10-23T08:02:41.405Z,16.20
2022-10-23T08:05:41.117Z,12.80
2022-10-23T08:08:38.913Z,14.40
2022-10-23T08:11:36.705Z,14.40
2022-10-23T08:14:36.433Z,15.00
2022-10-23T08:17:33.420Z,11.80
2022-10-23T08:20:46.119Z,14.00
2022-10-23T08:23:44.418Z,14.00
2022-10-23T08:26:41.391Z,11.20
2022-10-23T08:29:40.265Z,11.00
2022-10-23T08:32:37.073Z,14.40
2022-10-23T08:35:37.800Z,12.00
2022-10-23T08:38:36.193Z,16.40
2022-10-23T08:41:44.356Z,18.60
2022-10-23T08:44:50.671Z,17.20
2022-10-23T08:47:51.167Z,15.20
2022-10-23T08:51:31.747Z,16.40
2022-10-23T08:54:53.588Z,21.20
2022-10-23T08:58:10.942Z,18.20
2022-10-23T09:01:28.536Z,14.60
2022-10-23T09:04:26.380Z,17.40
2022-10-23T09:07:45.653Z,17.00
2022-10-23T09:10:52.025Z,17.00
2022-10-23T09:14:04.600Z,23.20
2022-10-23T09:20:25.865Z,18.80
2022-10-23T09:23:23.997Z,16.40
2022-10-23T09:26:21.239Z,19.00
2022-10-23T09:29:32.851Z,13.00
2022-10-23T09:32:34.449Z,16.80
2022-10-23T09:35:31.395Z,17.80
2022-10-23T09:38:51.327Z,17.80
2022-10-23T09:41:48.212Z,12.20
2022-10-23T09:44:49.678Z,16.00
2022-10-23T09:47:47.443Z,14.80
2022-10-23T09:50:53.070Z,13.60
2022-10-23T09:53:55.444Z,19.60
2022-10-23T09:56:52.926Z,11.20
2022-10-23T09:59:54.114Z,11.00
2022-10-23T10:02:55.398Z,12.60
2022-10-23T10:06:04.151Z,11.40
2022-10-23T10:09:08.103Z,10.20
2022-10-23T10:12:19.713Z,12.40
2022-10-23T10:15:22.271Z,9.60
2022-10-23T10:18:57.946Z,14.00
2022-10-23T10:22:16.802Z,12.60
2022-10-23T10:25:38.795Z,14.80
2022-10-23T10:28:58.978Z,15.00
2022-10-23T10:32:14.437Z,10.40
2022-10-23T10:35:20.549Z,14.40
2022-10-23T10:38:46.649Z,12.40
2022-10-23T10:41:45.459Z,13.00
2022-10-23T10:45:01.654Z,12.20
2022-10-23T10:48:36.225Z,14.40
2022-10-23T10:52:08.038Z,14.60
2022-10-23T10:55:23.433Z,15.00
2022-10-23T10:58:43.580Z,9.60
2022-10-23T11:01:49.333Z,13.00
2022-10-23T11:04:55.895Z,8.40
2022-10-23T11:07:56.188Z,8.40
2022-10-23T11:10:55.347Z,8.20
2022-10-23T11:13:53.865Z,3.60
2022-10-23T11:17:15.162Z,6.80
2022-10-23T11:20:30.303Z,4.80
2022-10-23T11:23:32.975Z,4.00
2022-10-23T11:26:51.954Z,7.00
2022-10-23T11:30:01.650Z,7.00
2022-10-23T11:33:04.439Z,5.80
2022-10-23T11:36:11.186Z,3.00
2022-10-23T11:39:33.984Z,4.60
2022-10-23T11:42:41.523Z,5.60
2022-10-23T11:45:40.155Z,7.40
2022-10-23T11:48:42.558Z,7.60
2022-10-23T11:51:40.059Z,8.60
2022-10-23T11:54:37.255Z,7.40
2022-10-23T11:57:34.373Z,5.80
2022-10-23T12:00:35.478Z,8.00
2022-10-23T12:04:13.567Z,9.20
2022-10-23T12:07:36.897Z,10.40
2022-10-23T12:10:46.890Z,8.80
2022-10-23T12:13:46.302Z,4.60
2022-10-23T12:16:43.656Z,9.20
2022-10-23T12:19:47.828Z,10.00
2022-10-23T12:23:00.529Z,10.80
2022-10-23T12:26:18.064Z,9.80
2022-10-23T12:29:41.167Z,9.00
2022-10-23T12:32:57.305Z,4.80
2022-10-23T12:36:02.779Z,9.60
2022-10-23T12:39:01.136Z,9.00
2022-10-23T12:41:59.567Z,9.40
2022-10-23T12:45:02.379Z,6.00
2022-10-23T12:47:59.592Z,10.20
2022-10-23T12:50:56.522Z,7.20
2022-10-23T12:53:53.762Z,6.00
2022-10-23T12:56:50.637Z,5.60
2022-10-23T12:59:47.045Z,4.80
2022-10-23T13:02:44.643Z,8.00
2022-10-23T13:05:41.178Z,3.60
2022-10-23T13:08:43.857Z,7.40
2022-10-23T13:12:33.008Z,24.40
2022-10-23T13:15:44.175Z,20.40
2022-10-23T13:18:41.902Z,11.80
2022-10-23T13:21:39.417Z,14.40
2022-10-23T13:24:36.439Z,12.60
2022-10-23T13:27:33.978Z,25.00
2022-10-23T13:30:33.732Z,11.20
2022-10-23T13:33:40.277Z,13.80
2022-10-23T13:36:39.634Z,9.20
2022-10-23T13:39:36.664Z,6.60
2022-10-23T13:42:33.711Z,11.80
2022-10-23T13:45:30.372Z,10.00
2022-10-23T13:48:27.367Z,8.80
2022-10-23T13:51:28.651Z,16.60
2022-10-23T13:57:29.776Z,12.80
2022-10-23T14:00:27.549Z,5.20
2022-10-23T14:03:25.087Z,8.00
2022-10-23T14:06:22.377Z,11.20
2022-10-23T14:09:19.355Z,9.40
2022-10-23T14:12:16.315Z,5.00
2022-10-23T14:15:13.300Z,6.40
2022-10-23T14:18:10.584Z,6.40
2022-10-23T14:21:08.131Z,8.80
2022-10-23T14:24:05.822Z,9.80
2022-10-23T14:27:02.264Z,6.00
2022-10-23T14:29:59.817Z,4.00
2022-10-23T14:32:56.127Z,8.00
2022-10-23T14:35:53.579Z,4.80
2022-10-23T14:38:55.451Z,5.00
2022-10-23T14:41:52.500Z,5.20
2022-10-23T14:44:50.030Z,5.00
2022-10-23T14:47:47.480Z,5.60
2022-10-23T14:50:45.967Z,2.80
2022-10-23T14:53:43.371Z,5.20
2022-10-23T14:56:40.914Z,4.20
2022-10-23T14:59:38.611Z,3.60
2022-10-23T15:02:35.624Z,2.80
2022-10-23T15:05:32.555Z,5.00
2022-10-23T15:08:29.790Z,3.80
2022-10-23T15:11:26.660Z,3.00
2022-10-23T15:14:23.256Z,2.60
2022-10-23T15:17:20.362Z,3.40
2022-10-23T15:20:17.323Z,6.60
2022-10-23T15:23:14.294Z,21.80
2022-10-23T15:26:20.751Z,29.80
2022-10-23T15:29:17.739Z,22.00
2022-10-23T15:32:14.366Z,9.80
2022-10-23T15:35:11.379Z,9.80
2022-10-23T15:38:08.691Z,4.80
2022-10-23T15:41:14.375Z,7.00
2022-10-23T15:44:13.924Z,4.40
2022-10-23T15:47:11.685Z,7.60
2022-10-23T15:50:09.010Z,9.60
2022-10-23T15:53:06.734Z,5.80
2022-10-23T15:56:03.985Z,6.40
2022-10-23T15:59:01.557Z,7.80
2022-10-23T16:01:58.830Z,5.00
2022-10-23T16:04:56.684Z,5.00
2022-10-23T16:07:53.606Z,6.00
2022-10-23T16:10:50.843Z,1.00
2022-10-23T16:13:47.832Z,5.00
2022-10-23T16:16:44.781Z,3.80
2022-10-23T16:19:41.856Z,3.60
2022-10-23T16:22:41.369Z,5.00
2022-10-23T16:25:41.687Z,5.20
2022-10-23T16:28:38.865Z,8.20
2022-10-23T16:31:35.699Z,8.00
2022-10-23T16:34:32.493Z,15.00
2022-10-23T16:37:29.534Z,10.40
2022-10-23T16:40:34.492Z,9.40
2022-10-23T16:44:08.838Z,5.40
2022-10-23T16:47:17.608Z,6.60
2022-10-23T16:50:15.601Z,3.40
2022-10-23T16:53:12.495Z,4.40
2022-10-23T16:56:10.250Z,9.00
2022-10-23T16:59:07.459Z,3.20
2022-10-23T17:02:04.635Z,4.00
2022-10-23T17:05:01.558Z,3.00
2022-10-23T17:07:58.423Z,3.00
2022-10-23T17:11:12.947Z,3.00
2022-10-23T17:14:15.107Z,7.40
2022-10-23T17:17:13.644Z,2.00
2022-10-23T17:20:11.390Z,3.00
2022-10-23T17:23:08.943Z,4.80
2022-10-23T17:26:07.996Z,3.60
2022-10-23T17:29:05.981Z,3.80
2022-10-23T17:32:02.848Z,2.80
2022-10-23T17:34:59.407Z,3.00
2022-10-23T17:37:57.027Z,3.20
2022-10-23T17:40:54.474Z,4.00
2022-10-23T17:43:51.855Z,5.00
2022-10-23T17:46:55.103Z,7.60
2022-10-23T17:49:52.608Z,6.60
2022-10-23T17:52:49.811Z,10.80
2022-10-23T17:55:46.811Z,3.20
2022-10-23T17:58:43.446Z,4.00
2022-10-23T18:01:42.817Z,5.00
2022-10-23T18:04:39.672Z,4.00
2022-10-23T18:07:36.420Z,5.20
2022-10-23T18:10:35.503Z,5.00
2022-10-23T18:13:33.297Z,5.80
2022-10-23T18:16:30.904Z,5.00
2022-10-23T18:19:28.245Z,4.00
2022-10-23T18:22:25.720Z,6.40
2022-10-23T18:25:22.644Z,10.20
2022-10-23T18:28:20.362Z,9.20
2022-10-23T18:31:17.904Z,5.40
2022-10-23T18:34:20.067Z,10.20
2022-10-23T18:37:16.686Z,5.80
2022-10-23T18:40:13.700Z,5.40
2022-10-23T18:43:14.947Z,4.20
2022-10-23T18:46:16.864Z,4.40
2022-10-23T18:49:13.951Z,2.80
2022-10-23T18:52:10.927Z,2.00
2022-10-23T18:55:08.315Z,3.00
2022-10-23T18:58:05.364Z,2.00
2022-10-23T19:01:03.087Z,2.80
2022-10-23T19:04:00.961Z,2.00
2022-10-23T19:06:57.823Z,2.00
2022-10-23T19:09:55.269Z,2.20
2022-10-23T19:12:52.537Z,3.00
2022-10-23T19:15:49.759Z,1.00
2022-10-23T19:18:49.371Z,2.80
2022-10-23T19:21:46.512Z,3.00
2022-10-23T19:25:17.487Z,1.00
2022-10-23T19:28:14.514Z,2.20
2022-10-23T19:31:12.172Z,2.80
2022-10-23T19:34:09.828Z,1.00
2022-10-23T19:37:06.899Z,3.00
2022-10-23T19:40:06.675Z,2.80
2022-10-23T19:43:03.712Z,2.00
2022-10-23T19:46:06.515Z,2.40
2022-10-23T19:49:06.583Z,2.00
2022-10-23T19:52:04.236Z,3.00
2022-10-23T19:55:03.249Z,3.80
2022-10-23T19:58:00.908Z,2.40
2022-10-23T20:00:58.032Z,1.80
2022-10-23T20:03:57.705Z,4.20
2022-10-23T20:06:55.928Z,3.40
2022-10-23T20:09:52.854Z,4.40
2022-10-23T20:12:56.838Z,8.40
2022-10-23T20:16:05.040Z,7.20
2022-10-23T20:19:02.675Z,4.00
2022-10-23T20:22:00.758Z,6.80
2022-10-23T20:24:57.931Z,7.20
2022-10-23T20:27:54.867Z,4.40
2022-10-23T20:30:51.827Z,8.00
2022-10-23T20:33:48.985Z,5.00
2022-10-23T20:36:47.545Z,8.20
2022-10-23T20:39:44.815Z,7.80
2022-10-23T20:42:41.594Z,4.00
2022-10-23T20:45:39.062Z,3.60
2022-10-23T20:48:43.038Z,7.80
2022-10-23T20:51:39.795Z,4.00
2022-10-23T20:54:38.185Z,5.40
2022-10-23T20:57:35.950Z,7.80
2022-10-23T21:00:32.863Z,5.00
2022-10-23T21:03:30.189Z,8.00
2022-10-23T21:06:33.943Z,4.40
2022-10-23T21:09:38.290Z,2.60
2022-10-23T21:12:35.891Z,4.00
2022-10-23T21:15:32.592Z,3.40
2022-10-23T21:18:44.893Z,7.40
2022-10-23T21:21:43.498Z,3.60
2022-10-23T21:24:40.570Z,6.20
2022-10-23T21:27:37.976Z,8.40
2022-10-23T21:30:35.481Z,6.80
2022-10-23T21:33:33.087Z,9.00
2022-10-23T21:36:31.036Z,7.40
2022-10-23T21:39:28.586Z,4.00
2022-10-23T21:42:26.143Z,4.40
2022-10-23T21:45:22.914Z,3.00
2022-10-23T21:48:20.119Z,3.00
2022-10-23T21:51:24.002Z,4.40
2022-10-23T21:54:20.836Z,5.00
2022-10-23T21:57:17.564Z,4.60
2022-10-23T22:00:16.493Z,3.00
2022-10-23T22:03:13.814Z,4.00
2022-10-23T22:06:21.686Z,2.40
2022-10-23T22:09:19.873Z,2.80
2022-10-23T22:12:16.905Z,4.20
2022-10-23T22:15:13.707Z,1.80
2022-10-23T22:18:10.658Z,3.00
2022-10-23T22:21:09.460Z,3.20
2022-10-23T22:24:06.790Z,3.40
2022-10-23T22:27:04.047Z,4.60
2022-10-23T22:30:03.770Z,3.80
2022-10-23T22:33:00.905Z,1.40
2022-10-23T22:36:02.237Z,2.80
2022-10-23T22:38:59.263Z,4.20
2022-10-23T22:41:55.966Z,7.20
2022-10-23T22:44:52.735Z,3.60
2022-10-23T22:47:50.063Z,2.60
2022-10-23T22:50:47.197Z,3.40
2022-10-23T22:53:43.760Z,5.00
2022-10-23T22:56:42.496Z,3.00
2022-10-23T22:59:40.084Z,3.60
2022-10-23T23:02:36.845Z,2.80
2022-10-23T23:05:33.954Z,5.00
2022-10-23T23:08:30.726Z,2.60
2022-10-23T23:11:27.967Z,4.40
2022-10-23T23:14:24.892Z,4.40
2022-10-23T23:17:22.651Z,2.00
2022-10-23T23:20:19.785Z,4.60
2022-10-23T23:23:17.160Z,4.60
2022-10-23T23:26:14.165Z,4.60
2022-10-23T23:29:10.733Z,4.60
2022-10-23T23:32:07.931Z,4.80
2022-10-23T23:35:05.450Z,3.40
2022-10-23T23:38:03.142Z,5.60
2022-10-23T23:40:59.866Z,5.00
2022-10-23T23:43:57.528Z,3.00
2022-10-23T23:46:55.071Z,4.00
2022-10-23T23:49:52.004Z,4.00
2022-10-23T23:52:49.138Z,5.20
2022-10-23T23:55:46.181Z,2.80
2022-10-23T23:58:42.910Z,2.00
